Time;durP1;ratioP1;P1;durP2;ratioP2;P2;SDS_P1;SDS_P2;PMS_P1;PMS_P2;Temp;Humidity;BMP_temperature;BMP_pressure;BME280_temperature;BME280_humidity;BME280_pressure;Samples;Min_cycle;Max_cycle;Signal;HPM_P1;HPM_P2
2024/01/02 00:01:02;;;;;;;10.48;2.47;;;;;;;7.15;83.47;99282.84;6070977;23;20035;-85
2024/01/02 00:03:29;;;;;;;8.30;2.17;;;;;;;7.14;83.95;99273.22;6094983;23;20026;-85
2024/01/02 00:05:56;;;;;;;14.48;3.70;;;;;;;7.14;83.85;99271.41;6118770;23;20372;-85
2024/01/02 00:08:23;;;;;;;14.85;2.42;;;;;;;7.12;83.92;99262.81;6071698;23;20021;-85
2024/01/02 00:10:50;;;;;;;14.43;2.58;;;;;;;7.14;83.90;99263.50;6119965;23;20756;-85
2024/01/02 00:13:17;;;;;;;10.00;2.35;;;;;;;7.14;83.96;99254.75;6119727;23;20071;-85
2024/01/02 00:15:44;;;;;;;13.73;2.75;;;;;;;7.15;84.14;99248.50;6095246;23;20065;-85
2024/01/02 00:18:11;;;;;;;11.48;3.72;;;;;;;7.13;84.45;99242.50;6071791;23;20081;-85
2024/01/02 00:20:38;;;;;;;7.47;2.28;;;;;;;7.15;84.67;99243.22;6071702;23;20028;-85
2024/01/02 00:23:05;;;;;;;8.73;1.70;;;;;;;7.15;84.60;99243.22;6144312;23;20041;-85
2024/01/02 00:25:32;;;;;;;6.28;2.65;;;;;;;7.14;84.91;99234.44;6120444;23;20076;-85
2024/01/02 00:27:59;;;;;;;11.23;2.67;;;;;;;7.14;85.07;99238.91;6119914;23;20045;-85
2024/01/02 00:30:26;;;;;;;14.07;2.35;;;;;;;7.12;84.95;99227.63;6094346;23;20026;-85
2024/01/02 00:32:53;;;;;;;14.20;2.80;;;;;;;7.13;85.38;99219.59;6095020;23;20025;-86
2024/01/02 00:35:20;;;;;;;10.50;3.45;;;;;;;7.14;84.92;99213.31;6144814;23;20088;-85
2024/01/02 00:37:47;;;;;;;11.98;2.40;;;;;;;7.14;85.44;99218.59;6119599;23;20116;-86
2024/01/02 00:40:14;;;;;;;8.88;2.22;;;;;;;7.12;85.39;99207.38;6070736;23;20025;-86
2024/01/02 00:42:41;;;;;;;11.77;2.63;;;;;;;7.16;85.21;99205.28;6120400;23;20017;-86
2024/01/02 00:45:08;;;;;;;7.35;2.20;;;;;;;7.16;85.05;99208.75;6119470;23;20043;-86
2024/01/02 00:47:35;;;;;;;12.07;2.22;;;;;;;7.18;84.73;99216.56;6118542;23;20031;-85
2024/01/02 00:50:03;;;;;;;5.82;2.40;;;;;;;7.18;84.66;99206.00;6118893;23;20021;-85
2024/01/02 00:52:30;;;;;;;7.30;2.53;;;;;;;7.20;84.74;99203.22;6094497;23;20026;-85
2024/01/02 00:54:57;;;;;;;10.23;3.33;;;;;;;7.20;84.75;99198.78;6120085;23;20053;-86
2024/01/02 00:57:25;;;;;;;16.55;5.68;;;;;;;7.21;84.66;99194.34;6095042;23;20096;-85
2024/01/02 00:59:52;;;;;;;15.93;4.22;;;;;;;7.23;84.45;99184.50;6095012;23;20018;-86
2024/01/02 01:02:19;;;;;;;16.75;3.33;;;;;;;7.26;84.15;99182.41;6119247;23;20758;-85
2024/01/02 01:04:46;;;;;;;17.77;3.13;;;;;;;7.26;83.86;99177.13;6095414;23;20093;-85
2024/01/02 01:07:13;;;;;;;10.45;2.50;;;;;;;7.29;83.67;99170.75;6070974;23;20025;-86
2024/01/02 01:09:40;;;;;;;6.10;1.67;;;;;;;7.30;83.55;99170.63;6042976;23;20034;-85
2024/01/02 01:12:07;;;;;;;10.60;2.05;;;;;;;7.31;83.35;99169.66;6043245;23;20477;-85
2024/01/02 01:14:35;;;;;;;6.10;1.58;;;;;;;7.33;83.11;99165.09;6143622;23;20025;-85
2024/01/02 01:17:05;;;;;;;7.30;2.75;;;;;;;7.35;83.05;99157.00;6094153;23;20401;-86
2024/01/02 01:19:33;;;;;;;6.50;2.20;;;;;;;7.36;82.84;99148.13;6095247;23;20044;-86
2024/01/02 01:22:00;;;;;;;7.93;2.65;;;;;;;7.37;82.63;99152.44;6120489;23;20041;-85
2024/01/02 01:24:26;;;;;;;6.63;1.83;;;;;;;7.38;82.58;99151.50;6094605;23;20084;-85
2024/01/02 01:26:53;;;;;;;6.13;1.58;;;;;;;7.39;82.37;99153.97;6094642;23;20504;-85
2024/01/02 01:29:20;;;;;;;4.43;1.30;;;;;;;7.41;82.23;99145.09;6071354;23;20080;-85
2024/01/02 01:31:48;;;;;;;8.38;1.80;;;;;;;7.41;82.60;99140.66;6071078;23;20049;-85
2024/01/02 01:34:15;;;;;;;8.35;1.98;;;;;;;7.40;82.72;99131.03;6118751;23;20013;-85
2024/01/02 01:36:43;;;;;;;5.03;1.90;;;;;;;7.41;83.03;99130.09;6095100;23;20092;-85
2024/01/02 01:39:09;;;;;;;7.28;1.77;;;;;;;7.39;83.28;99127.56;6119180;23;20057;-85
2024/01/02 01:41:36;;;;;;;7.60;2.28;;;;;;;7.37;83.86;99108.38;6070712;23;20033;-85
2024/01/02 01:44:03;;;;;;;6.10;1.50;;;;;;;7.36;84.04;99117.28;6071294;23;20021;-85
2024/01/02 01:46:37;;;;;;;9.70;1.50;;;;;;;7.34;84.77;99113.09;6118113;23;20021;-85
2024/01/02 01:49:06;;;;;;;8.38;1.85;;;;;;;7.35;84.58;99112.13;6094782;23;20073;-85
2024/01/02 01:51:39;;;;;;;6.15;1.85;;;;;;;7.34;85.39;99102.53;6071074;23;20549;-85
2024/01/02 01:54:06;;;;;;;10.25;1.77;;;;;;;7.34;85.19;99090.16;6118558;23;20484;-85
2024/01/02 01:56:34;;;;;;;6.13;1.88;;;;;;;7.35;85.30;99083.06;6094965;23;20030;-85
2024/01/02 01:59:04;;;;;;;9.38;1.95;;;;;;;7.32;85.74;99076.25;6094805;23;20092;-85
2024/01/02 02:01:32;;;;;;;5.03;1.80;;;;;;;7.31;86.14;99069.31;6094655;23;20025;-85
2024/01/02 02:04:00;;;;;;;8.43;2.20;;;;;;;7.33;86.40;99072.66;6070927;23;20126;-85
2024/01/02 02:06:27;;;;;;;4.90;1.40;;;;;;;7.33;86.68;99069.19;6094766;23;20017;-85
2024/01/02 02:08:54;;;;;;;13.50;2.13;;;;;;;7.32;86.82;99062.22;6094731;23;20404;-85
2024/01/02 02:11:21;;;;;;;9.82;1.30;;;;;;;7.32;87.15;99060.41;6093902;23;20035;-85
2024/01/02 02:13:48;;;;;;;4.78;1.30;;;;;;;7.34;87.26;99065.56;6071237;23;20524;-85
2024/01/02 02:16:14;;;;;;;8.57;1.40;;;;;;;7.30;87.99;99057.06;6094244;23;20029;-85
2024/01/02 02:18:41;;;;;;;5.82;1.42;;;;;;;7.28;88.53;99056.38;6119571;23;20019;-85
2024/01/02 02:21:11;;;;;;;4.47;1.20;;;;;;;7.28;88.77;99059.00;6118641;23;20026;-85
2024/01/02 02:23:37;;;;;;;5.45;1.63;;;;;;;7.27;89.27;99053.84;6094822;23;20076;-85
2024/01/02 02:26:04;;;;;;;7.00;1.20;;;;;;;7.26;89.71;99047.75;6094367;23;20041;-85
2024/01/02 02:28:31;;;;;;;9.35;2.28;;;;;;;7.24;90.47;99041.75;6095348;23;20017;-85
2024/01/02 02:30:58;;;;;;;7.10;1.73;;;;;;;7.24;90.55;99035.63;6070349;23;20029;-85
2024/01/02 02:33:25;;;;;;;7.47;1.50;;;;;;;7.24;90.44;99019.78;6119130;23;20052;-85
2024/01/02 02:35:52;;;;;;;4.93;1.63;;;;;;;7.24;91.22;99017.16;6071305;23;20349;-85
2024/01/02 02:38:19;;;;;;;6.75;2.83;;;;;;;7.25;91.11;99013.53;6118782;23;20536;-85
2024/01/02 02:40:46;;;;;;;9.02;2.38;;;;;;;7.24;90.86;99007.41;6118075;23;20029;-85
2024/01/02 02:43:12;;;;;;;5.25;1.20;;;;;;;7.27;90.89;99006.31;6094886;23;20362;-85
2024/01/02 02:45:39;;;;;;;6.82;1.50;;;;;;;7.27;90.97;99006.31;6096048;23;20036;-85
2024/01/02 02:48:06;;;;;;;8.38;1.73;;;;;;;7.27;91.03;99003.69;6120624;23;20041;-85
2024/01/02 02:50:34;;;;;;;11.93;1.58;;;;;;;7.24;91.90;98993.41;6072187;23;20029;-85
2024/01/02 02:53:01;;;;;;;3.30;1.35;;;;;;;7.24;91.90;98994.22;6120514;23;20080;-85
2024/01/02 02:55:28;;;;;;;6.28;1.30;;;;;;;7.24;92.16;98982.84;6120934;23;20076;-85
2024/01/02 02:57:56;;;;;;;8.75;2.47;;;;;;;7.23;92.01;98973.25;6144707;23;20407;-85
2024/01/02 03:00:22;;;;;;;8.02;2.15;;;;;;;7.24;91.99;98969.63;6095414;23;20022;-84
2024/01/02 03:02:49;;;;;;;8.50;1.77;;;;;;;7.24;92.37;98959.06;6096884;23;20343;-84
2024/01/02 03:05:16;;;;;;;4.88;1.95;;;;;;;7.25;92.33;98952.81;6119823;23;20029;-85
2024/01/02 03:07:44;;;;;;;5.25;1.10;;;;;;;7.24;92.67;98943.22;6119459;23;20033;-85
2024/01/02 03:10:13;;;;;;;3.83;1.55;;;;;;;7.21;93.12;98941.69;6096164;23;20349;-85
2024/01/02 03:12:41;;;;;;;11.55;1.20;;;;;;;7.22;92.91;98926.69;6121001;23;20640;-85
2024/01/02 03:15:12;;;;;;;6.60;1.42;;;;;;;7.24;92.98;98919.47;6121574;23;20102;-85
2024/01/02 03:17:38;;;;;;;5.35;1.83;;;;;;;7.23;93.37;98910.72;6144285;23;20044;-85
2024/01/02 03:20:06;;;;;;;3.05;1.23;;;;;;;7.23;93.35;98894.88;6093639;23;20028;-85
2024/01/02 03:22:33;;;;;;;9.68;1.90;;;;;;;7.21;93.50;98891.53;6115363;23;20114;-84
2024/01/02 03:25:00;;;;;;;4.40;1.38;;;;;;;7.20;94.00;98889.00;6145303;23;20413;-85
2024/01/02 03:27:26;;;;;;;6.50;1.42;;;;;;;7.18;94.09;98892.63;6094720;23;20017;-85
2024/01/02 03:29:53;;;;;;;3.90;1.17;;;;;;;7.20;94.13;98881.09;6072094;23;20072;-85
2024/01/02 03:32:20;;;;;;;6.10;1.20;;;;;;;7.21;94.15;98877.50;6143850;23;20594;-85
2024/01/02 03:34:50;;;;;;;5.30;2.15;;;;;;;7.21;94.02;98874.84;6120220;23;20027;-85
2024/01/02 03:37:17;;;;;;;12.18;2.00;;;;;;;7.17;94.94;98880.41;6120932;23;20024;-85
2024/01/02 03:39:44;;;;;;;11.05;2.65;;;;;;;7.18;95.05;98882.06;6120110;23;20097;-85
2024/01/02 03:42:11;;;;;;;6.53;1.90;;;;;;;7.21;95.01;98873.03;6120365;23;20026;-85
2024/01/02 03:44:37;;;;;;;11.30;1.88;;;;;;;7.20;95.10;98866.09;6120331;23;20014;-84
2024/01/02 03:47:04;;;;;;;3.88;1.40;;;;;;;7.18;95.25;98868.88;6120127;23;20025;-85
2024/01/02 03:49:31;;;;;;;6.65;2.00;;;;;;;7.18;95.61;98854.84;6119451;23;20467;-85
2024/01/02 03:51:58;;;;;;;7.75;1.85;;;;;;;7.16;95.99;98849.69;6091560;23;20022;-84
2024/01/02 03:54:25;;;;;;;3.25;1.20;;;;;;;7.21;95.97;98840.53;6143081;23;20021;-85
2024/01/02 03:56:52;;;;;;;3.55;1.35;;;;;;;7.18;96.14;98834.53;6142465;23;20101;-85
2024/01/02 03:59:18;;;;;;;5.68;1.58;;;;;;;7.18;96.57;98834.53;6119617;23;20032;-85
2024/01/02 04:01:45;;;;;;;7.55;1.55;;;;;;;7.18;96.50;98826.63;6095552;23;20389;-85
2024/01/02 04:04:12;;;;;;;5.40;1.45;;;;;;;7.18;97.08;98817.88;6091779;23;20029;-85
2024/01/02 04:06:39;;;;;;;15.13;2.28;;;;;;;7.15;97.55;98815.53;6118119;23;20361;-85
2024/01/02 04:09:06;;;;;;;11.25;1.83;;;;;;;7.16;97.26;98806.63;6095767;23;20089;-85
2024/01/02 04:11:32;;;;;;;9.63;1.60;;;;;;;7.17;97.22;98795.94;6096172;23;20467;-85
2024/01/02 04:13:59;;;;;;;3.28;1.55;;;;;;;7.17;97.50;98790.66;6095498;23;20691;-85
2024/01/02 04:16:26;;;;;;;3.88;1.10;;;;;;;7.18;97.72;98787.03;6119382;23;20018;-85
2024/01/02 04:18:53;;;;;;;7.43;1.50;;;;;;;7.17;97.67;98776.59;6121118;23;20505;-85
2024/01/02 04:21:20;;;;;;;6.90;1.50;;;;;;;7.17;97.95;98774.81;6095276;23;20025;-85
2024/01/02 04:23:47;;;;;;;8.43;2.33;;;;;;;7.16;98.29;98770.47;6119431;23;20093;-85
2024/01/02 04:26:14;;;;;;;8.35;1.70;;;;;;;7.15;98.57;98766.19;6119993;23;20124;-85
2024/01/02 04:28:41;;;;;;;4.72;1.52;;;;;;;7.17;98.43;98755.47;6071635;23;20021;-85
2024/01/02 04:31:08;;;;;;;7.00;1.50;;;;;;;7.16;98.30;98751.19;6119051;23;20087;-85
2024/01/02 04:33:35;;;;;;;5.65;1.60;;;;;;;7.18;98.32;98749.22;6143748;23;20022;-85
2024/01/02 04:36:01;;;;;;;9.68;1.73;;;;;;;7.19;98.30;98748.25;6143852;23;20017;-85
2024/01/02 04:38:28;;;;;;;4.07;1.33;;;;;;;7.18;98.50;98736.03;6095008;23;20036;-85
2024/01/02 04:40:57;;;;;;;3.17;1.55;;;;;;;7.16;98.64;98720.31;6144389;23;20025;-85
2024/01/02 04:43:24;;;;;;;3.42;1.20;;;;;;;7.16;98.54;98715.03;6070918;23;20591;-84
2024/01/02 04:45:53;;;;;;;6.25;1.77;;;;;;;7.19;98.65;98706.00;6095340;23;20079;-85
2024/01/02 04:48:19;;;;;;;8.43;1.70;;;;;;;7.17;98.75;98700.88;6119560;23;20084;-85
2024/01/02 04:50:47;;;;;;;4.72;1.58;;;;;;;7.15;99.34;98694.91;6095058;23;20026;-85
2024/01/02 04:53:14;;;;;;;5.63;1.40;;;;;;;7.16;98.77;98688.66;6095590;23;20025;-85
2024/01/02 04:55:41;;;;;;;4.25;1.42;;;;;;;7.15;99.24;98692.28;6120120;23;20020;-85
2024/01/02 04:58:08;;;;;;;5.93;1.35;;;;;;;7.14;99.88;98684.47;6143542;23;20029;-85
2024/01/02 05:00:35;;;;;;;2.42;1.25;;;;;;;7.15;99.47;98681.72;6142176;23;20021;-86
2024/01/02 05:03:02;;;;;;;3.03;1.60;;;;;;;7.15;99.80;98668.50;6144456;23;20096;-86
2024/01/02 05:05:29;;;;;;;3.28;1.00;;;;;;;7.14;99.67;98658.91;6095255;23;20084;-85
2024/01/02 05:07:58;;;;;;;4.43;1.20;;;;;;;7.16;99.62;98649.03;6093879;23;20018;-86
2024/01/02 05:10:25;;;;;;;6.93;1.77;;;;;;;7.19;99.72;98655.84;6119472;23;20780;-85
2024/01/02 05:12:51;;;;;;;5.35;1.30;;;;;;;7.18;100.00;98651.56;6071480;23;20018;-85
2024/01/02 05:15:18;;;;;;;4.15;1.35;;;;;;;7.20;100.00;98639.03;6071272;23;20029;-85
2024/01/02 05:17:46;;;;;;;2.90;1.27;;;;;;;7.20;100.00;98648.75;6145471;23;20023;-85
2024/01/02 05:20:13;;;;;;;4.57;1.15;;;;;;;7.20;100.00;98638.19;6119192;23;20028;-85
2024/01/02 05:22:40;;;;;;;2.72;1.30;;;;;;;7.22;100.00;98621.22;6119069;23;20034;-85
2024/01/02 05:25:07;;;;;;;5.20;1.00;;;;;;;7.23;99.65;98614.16;6120008;23;20021;-85
2024/01/02 05:27:35;;;;;;;8.30;1.58;;;;;;;7.24;99.61;98614.00;6070180;23;20476;-85
2024/01/02 05:30:02;;;;;;;3.80;1.70;;;;;;;7.24;99.86;98608.72;6119392;23;20025;-85
2024/01/02 05:32:29;;;;;;;5.70;1.60;;;;;;;7.24;100.00;98598.16;6094638;23;20088;-85
2024/01/02 05:34:56;;;;;;;2.45;1.25;;;;;;;7.25;100.00;98596.34;6119158;23;20370;-85
2024/01/02 05:37:23;;;;;;;6.07;1.40;;;;;;;7.24;100.00;98605.25;6118819;23;20033;-85
2024/01/02 05:39:50;;;;;;;4.63;1.20;;;;;;;7.24;100.00;98597.34;6095114;23;20017;-85
2024/01/02 05:42:16;;;;;;;3.90;1.20;;;;;;;7.26;100.00;98595.38;6095357;23;20602;-85
2024/01/02 05:44:43;;;;;;;6.32;1.70;;;;;;;7.26;100.00;98585.66;6070623;23;20339;-85
2024/01/02 05:47:10;;;;;;;3.45;1.00;;;;;;;7.26;100.00;98584.81;6119344;23;20438;-85
2024/01/02 05:49:37;;;;;;;6.40;1.40;;;;;;;7.26;100.00;98574.25;6118914;23;20022;-85
2024/01/02 05:52:04;;;;;;;2.92;1.67;;;;;;;7.25;100.00;98557.59;6119310;23;20453;-85
2024/01/02 05:54:31;;;;;;;5.82;1.83;;;;;;;7.26;100.00;98559.25;6094879;23;20032;-85
2024/01/02 05:56:58;;;;;;;4.40;2.40;;;;;;;7.26;100.00;98567.16;6118741;23;20065;-85
2024/01/02 05:59:25;;;;;;;4.05;1.10;;;;;;;7.28;100.00;98564.41;6094582;23;20346;-85
2024/01/02 06:01:51;;;;;;;2.65;1.10;;;;;;;7.27;100.00;98552.16;6118869;23;20041;-86
2024/01/02 06:04:18;;;;;;;2.97;1.25;;;;;;;7.28;100.00;98553.84;6070523;23;20091;-85
2024/01/02 06:06:45;;;;;;;4.03;1.77;;;;;;;7.28;100.00;98551.19;6094798;23;20026;-85
2024/01/02 06:09:12;;;;;;;5.88;1.80;;;;;;;7.27;100.00;98560.06;6119298;23;20029;-86
2024/01/02 06:11:38;;;;;;;3.55;1.58;;;;;;;7.27;100.00;98550.34;6094554;23;20794;-85
2024/01/02 06:14:05;;;;;;;4.85;1.80;;;;;;;7.27;100.00;98552.16;6144305;23;20022;-86
2024/01/02 06:16:32;;;;;;;6.50;1.65;;;;;;;7.27;100.00;98549.50;6143248;23;20021;-85
2024/01/02 06:18:59;;;;;;;4.97;1.40;;;;;;;7.25;100.00;98538.25;6118677;23;20113;-85
2024/01/02 06:21:26;;;;;;;2.85;1.00;;;;;;;7.25;100.00;98530.34;6121201;23;20017;-85
2024/01/02 06:23:53;;;;;;;2.92;1.20;;;;;;;7.24;100.00;98524.22;6097250;23;20357;-85
2024/01/02 06:26:23;;;;;;;5.13;1.63;;;;;;;7.26;100.00;98514.38;6145019;23;20040;-85
2024/01/02 06:28:50;;;;;;;6.82;1.70;;;;;;;7.26;100.00;98516.19;6121242;23;20025;-85
2024/01/02 06:31:21;;;;;;;1.17;1.08;;;;;;;7.24;100.00;98510.22;6120884;23;20023;-85
2024/01/02 06:33:47;;;;;;;5.00;1.40;;;;;;;7.24;100.00;98524.22;6120792;23;20052;-85
2024/01/02 06:36:15;;;;;;;3.20;1.63;;;;;;;7.25;100.00;98520.63;6096666;23;20021;-86
2024/01/02 06:38:42;;;;;;;3.42;1.70;;;;;;;7.24;100.00;98511.03;6096040;23;20093;-85
2024/01/02 06:41:09;;;;;;;4.85;1.67;;;;;;;7.25;100.00;98522.41;6145723;23;20024;-86
2024/01/02 06:43:36;;;;;;;3.47;1.40;;;;;;;7.25;100.00;98528.56;6145341;23;20025;-84
2024/01/02 06:46:03;;;;;;;3.97;1.25;;;;;;;7.25;100.00;98528.56;6120540;23;20092;-84
2024/01/02 06:48:30;;;;;;;3.20;1.40;;;;;;;7.25;100.00;98520.63;6145915;23;20025;-84
2024/01/02 06:50:57;;;;;;;8.48;1.50;;;;;;;7.26;100.00;98521.47;6096931;23;20053;-84
2024/01/02 06:53:24;;;;;;;7.88;1.80;;;;;;;7.25;100.00;98519.78;6073382;23;20025;-84
2024/01/02 06:55:51;;;;;;;4.15;1.60;;;;;;;7.25;100.00;98511.84;6096760;23;20052;-84
2024/01/02 06:58:17;;;;;;;2.17;1.60;;;;;;;7.25;100.00;98527.69;6096699;23;20018;-84
2024/01/02 07:00:44;;;;;;;3.60;1.70;;;;;;;7.25;100.00;98525.06;6121487;23;20059;-84
2024/01/02 07:03:11;;;;;;;3.90;1.80;;;;;;;7.26;100.00;98524.94;6096347;23;20017;-84
2024/01/02 07:05:39;;;;;;;3.38;1.55;;;;;;;7.26;100.00;98532.84;6120452;23;20028;-84
2024/01/02 07:08:06;;;;;;;7.35;1.90;;;;;;;7.26;100.00;98532.84;6073252;23;20104;-84
2024/01/02 07:10:33;;;;;;;3.38;1.60;;;;;;;7.28;100.00;98538.00;6070230;23;20088;-83
2024/01/02 07:13:00;;;;;;;5.20;1.85;;;;;;;7.29;100.00;98534.34;6120849;23;20029;-83
2024/01/02 07:15:27;;;;;;;2.67;1.42;;;;;;;7.28;100.00;98530.91;6097224;23;20021;-84
2024/01/02 07:17:54;;;;;;;4.85;1.42;;;;;;;7.30;100.00;98525.44;6145281;23;20096;-84
2024/01/02 07:20:21;;;;;;;4.18;1.38;;;;;;;7.28;100.00;98519.50;6120297;23;20032;-84
2024/01/02 07:22:48;;;;;;;1.70;1.38;;;;;;;7.30;100.00;98515.75;6093619;23;20018;-84
2024/01/02 07:25:15;;;;;;;4.63;1.77;;;;;;;7.30;100.00;98522.81;6092124;23;20104;-83
2024/01/02 07:27:42;;;;;;;3.80;1.55;;;;;;;7.30;100.00;98522.81;6115178;23;20018;-84
2024/01/02 07:30:10;;;;;;;5.20;1.73;;;;;;;7.31;100.00;98519.22;6115695;23;20410;-84
2024/01/02 07:32:36;;;;;;;4.97;2.03;;;;;;;7.30;100.00;98522.81;6118184;23;20021;-84
2024/01/02 07:35:04;;;;;;;5.30;3.03;;;;;;;7.30;100.00;98534.22;6118403;23;20029;-84
2024/01/02 07:37:32;;;;;;;3.47;2.03;;;;;;;7.31;100.00;98542.97;6144919;23;20028;-84
2024/01/02 07:39:58;;;;;;;6.28;2.13;;;;;;;7.32;100.00;98541.97;6120843;23;20029;-84
2024/01/02 07:42:25;;;;;;;3.65;2.10;;;;;;;7.33;100.00;98546.31;6145467;23;20025;-83
2024/01/02 07:44:52;;;;;;;6.60;1.90;;;;;;;7.35;100.00;98554.88;6121352;23;20056;-83
2024/01/02 07:47:19;;;;;;;3.10;1.40;;;;;;;7.36;100.00;98564.50;6119914;23;20080;-83
2024/01/02 07:49:46;;;;;;;2.97;1.60;;;;;;;7.37;100.00;98535.28;6072538;23;20398;-84
2024/01/02 07:52:13;;;;;;;3.22;1.20;;;;;;;7.36;100.00;98530.97;6097187;23;20028;-83
2024/01/02 07:54:40;;;;;;;2.15;1.10;;;;;;;7.41;100.00;98543.75;6119963;23;20028;-83
2024/01/02 07:57:07;;;;;;;2.47;1.10;;;;;;;7.43;100.00;98560.28;6072425;23;20359;-83
2024/01/02 07:59:36;;;;;;;1.35;0.88;;;;;;;7.45;100.00;98563.59;6121485;23;20041;-83
2024/01/02 08:02:03;;;;;;;4.65;0.85;;;;;;;7.46;100.00;98557.34;6144940;23;20017;-83
2024/01/02 08:04:30;;;;;;;1.35;0.60;;;;;;;7.49;100.00;98558.88;6120202;23;20022;-83
2024/01/02 08:06:59;;;;;;;2.97;1.10;;;;;;;7.53;100.00;98550.50;6120349;23;20014;-83
2024/01/02 08:09:26;;;;;;;2.45;1.40;;;;;;;7.54;100.00;98546.03;6095677;23;20028;-83
2024/01/02 08:11:53;;;;;;;2.97;0.88;;;;;;;7.55;100.00;98559.09;6095734;23;20052;-83
2024/01/02 08:14:20;;;;;;;2.78;0.80;;;;;;;7.56;100.00;98563.41;6120586;23;20158;-86
2024/01/02 08:16:47;;;;;;;1.60;0.80;;;;;;;7.59;100.00;98551.72;6120145;23;20022;-84
2024/01/02 08:19:14;;;;;;;1.27;0.73;;;;;;;7.60;100.00;98558.66;6119893;23;20029;-84
2024/01/02 08:21:41;;;;;;;0.85;0.77;;;;;;;7.63;100.00;98568.91;6120795;23;20029;-84
2024/01/02 08:24:08;;;;;;;0.82;0.70;;;;;;;7.65;100.00;98566.97;6145290;23;20097;-83
2024/01/02 08:26:36;;;;;;;0.60;0.60;;;;;;;7.66;100.00;98559.84;6071531;23;20380;-84
2024/01/02 08:29:03;;;;;;;0.88;0.70;;;;;;;7.66;100.00;98554.56;6144085;23;20029;-84
2024/01/02 08:31:30;;;;;;;0.95;0.60;;;;;;;7.68;100.00;98557.91;6120665;23;20026;-82
2024/01/02 08:33:56;;;;;;;1.50;0.70;;;;;;;7.68;100.00;98560.56;6120057;23;20021;-83
2024/01/02 08:36:24;;;;;;;1.85;0.80;;;;;;;7.68;100.00;98571.94;6090324;23;20559;-84
2024/01/02 08:38:50;;;;;;;1.23;0.70;;;;;;;7.72;100.00;98568.03;6091860;23;20081;-84
2024/01/02 08:41:17;;;;;;;1.98;1.10;;;;;;;7.71;100.00;98555.81;6119116;23;20390;-84
2024/01/02 08:43:44;;;;;;;1.92;0.88;;;;;;;7.71;100.00;98558.47;6072049;23;20796;-85
2024/01/02 08:46:11;;;;;;;1.95;0.70;;;;;;;7.71;100.00;98561.09;6119639;23;20026;-84
2024/01/02 08:48:38;;;;;;;1.30;0.70;;;;;;;7.77;100.00;98549.09;6120396;23;20077;-85
2024/01/02 08:51:05;;;;;;;1.00;0.60;;;;;;;7.74;100.00;98558.16;6121023;23;20014;-85
2024/01/02 08:53:32;;;;;;;1.38;0.50;;;;;;;7.76;100.00;98565.91;6143719;23;20032;-83
2024/01/02 08:55:59;;;;;;;2.05;0.70;;;;;;;7.76;100.00;98566.78;6119920;23;20033;-84
2024/01/02 08:58:26;;;;;;;1.20;0.93;;;;;;;7.78;100.00;98571.88;6120515;23;20021;-83
2024/01/02 09:00:53;;;;;;;2.15;1.27;;;;;;;7.78;100.00;98558.69;6120335;23;20112;-84
2024/01/02 09:03:20;;;;;;;0.70;0.70;;;;;;;7.79;100.00;98573.56;6143845;23;20073;-85
2024/01/02 09:05:47;;;;;;;1.35;0.82;;;;;;;7.78;100.00;98563.97;6096218;23;20021;-83
2024/01/02 09:08:15;;;;;;;1.45;0.90;;;;;;;7.82;100.00;98575.91;6095354;23;20037;-82
2024/01/02 09:10:43;;;;;;;1.52;0.90;;;;;;;7.80;100.00;98578.69;6118742;23;20520;-83
2024/01/02 09:13:11;;;;;;;1.48;0.70;;;;;;;7.82;100.00;98582.03;6091387;23;20454;-83
2024/01/02 09:15:39;;;;;;;0.80;0.70;;;;;;;7.85;100.00;98583.53;6118172;23;20092;-84
2024/01/02 09:18:05;;;;;;;0.95;0.45;;;;;;;7.84;100.00;98597.75;6065527;23;20029;-84
2024/01/02 09:20:34;;;;;;;1.02;0.60;;;;;;;7.86;100.00;98587.84;6117122;23;20025;-84
2024/01/02 09:23:01;;;;;;;2.45;0.70;;;;;;;7.88;100.00;98604.38;6091536;23;20018;-84
2024/01/02 09:25:30;;;;;;;0.90;0.60;;;;;;;7.83;100.00;98588.13;6095779;23;20453;-84
2024/01/02 09:27:59;;;;;;;1.90;0.77;;;;;;;7.80;100.00;98591.06;6094842;23;20056;-83
2024/01/02 09:30:29;;;;;;;1.52;0.90;;;;;;;7.86;100.00;98593.13;6094931;23;20036;-83
2024/01/02 09:32:56;;;;;;;1.40;1.02;;;;;;;7.89;100.00;98599.94;6095642;23;20084;-85
2024/01/02 09:35:23;;;;;;;1.75;0.80;;;;;;;7.93;100.00;98588.06;6095506;23;20636;-86
2024/01/02 09:37:50;;;;;;;1.70;0.70;;;;;;;7.91;100.00;98597.94;6094163;23;20036;-87
2024/01/02 09:40:31;;;;;;;1.10;0.60;;;;;;;7.88;100.00;98591.16;6070876;23;20026;-87
2024/01/02 09:43:22;;;;;;;1.00;0.60;;;;;;;7.87;100.00;98584.22;6143238;23;20092;-86
2024/01/02 09:46:04;;;;;;;1.65;0.85;;;;;;;7.91;100.00;98593.53;6094087;23;20024;-85
2024/01/02 09:48:45;;;;;;;3.50;0.80;;;;;;;7.91;100.00;98592.66;6095271;23;20021;-85
2024/01/02 09:51:27;;;;;;;1.88;0.60;;;;;;;7.90;100.00;98583.09;6118956;23;20045;-85
2024/01/02 09:54:01;;;;;;;2.78;1.23;;;;;;;7.91;100.00;98577.66;6119548;23;20072;-87
2024/01/02 09:56:40;;;;;;;2.60;1.00;;;;;;;7.91;100.00;98580.31;6118484;23;20017;-88
2024/01/02 09:59:46;;;;;;;5.10;1.02;;;;;;;7.90;100.00;98594.50;6071350;23;20454;-87
2024/01/02 10:02:46;;;;;;;3.38;1.10;;;;;;;7.90;100.00;98594.50;6093122;23;20028;-85
2024/01/02 10:05:15;;;;;;;2.58;1.08;;;;;;;7.94;100.00;98593.22;6118568;23;20338;-85
2024/01/02 10:08:11;;;;;;;4.97;1.40;;;;;;;7.91;100.00;98572.38;6142700;23;20462;-82
2024/01/02 10:10:52;;;;;;;2.80;1.23;;;;;;;7.91;100.00;98585.59;6118435;23;20097;-83
2024/01/02 10:13:27;;;;;;;2.33;1.10;;;;;;;7.94;100.00;98587.09;6143184;23;20028;-82
2024/01/02 10:16:12;;;;;;;8.60;1.33;;;;;;;7.97;100.00;98579.69;6119324;23;20449;-82
2024/01/02 10:18:50;;;;;;;4.25;1.30;;;;;;;7.97;100.00;98581.53;6145414;23;20013;-82
2024/01/02 10:21:39;;;;;;;1.58;0.90;;;;;;;7.96;100.00;98566.63;6119242;23;20021;-85
2024/01/02 10:24:18;;;;;;;2.25;0.85;;;;;;;7.95;100.00;98575.53;6143573;23;20025;-84
2024/01/02 10:26:56;;;;;;;1.00;0.70;;;;;;;7.98;100.00;98576.06;6117265;23;20025;-85
2024/01/02 10:29:28;;;;;;;1.98;0.70;;;;;;;7.96;100.00;98566.63;6118672;23;20032;-85
2024/01/02 10:32:05;;;;;;;3.75;0.80;;;;;;;7.98;100.00;98564.66;6143439;23;20381;-83
2024/01/02 10:34:37;;;;;;;0.60;0.60;;;;;;;7.97;100.00;98555.91;6094991;23;20014;-82
2024/01/02 10:37:06;;;;;;;3.03;1.10;;;;;;;8.00;100.00;98555.59;6094449;23;20053;-82
2024/01/02 10:39:41;;;;;;;1.88;1.00;;;;;;;8.01;100.00;98549.34;6093796;23;20021;-85
2024/01/02 10:42:48;;;;;;;3.72;1.20;;;;;;;7.99;100.00;98540.72;6118895;23;20033;-84
2024/01/02 10:45:34;;;;;;;4.63;1.08;;;;;;;8.01;100.00;98533.50;6093248;23;20021;-85
2024/01/02 10:48:19;;;;;;;5.55;1.33;;;;;;;7.98;100.00;98544.34;6142235;23;20093;-86
2024/01/02 10:51:03;;;;;;;1.75;0.85;;;;;;;8.01;100.00;98528.19;6118038;23;20017;-85
2024/01/02 10:53:45;;;;;;;1.90;1.10;;;;;;;8.02;100.00;98511.34;6094434;23;20092;-84
2024/01/02 10:56:29;;;;;;;3.88;1.13;;;;;;;8.03;100.00;98513.00;6118179;23;20030;-86
2024/01/02 10:59:27;;;;;;;1.75;0.77;;;;;;;8.01;100.00;98507.06;6145283;23;20755;-85
2024/01/02 11:02:01;;;;;;;1.55;0.95;;;;;;;8.07;100.00;98515.34;6117872;23;20040;-82
2024/01/02 11:04:45;;;;;;;2.95;1.10;;;;;;;8.07;100.00;98507.44;6118815;23;20031;-83
2024/01/02 11:07:13;;;;;;;1.02;0.93;;;;;;;8.11;100.00;98512.22;6095447;23;20096;-85
2024/01/02 11:09:51;;;;;;;1.90;1.15;;;;;;;8.08;100.00;98498.50;6095519;23;20366;-85
2024/01/02 11:12:21;;;;;;;1.38;0.55;;;;;;;8.14;100.00;98508.44;6119353;23;20029;-83
2024/01/02 11:14:50;;;;;;;2.72;0.88;;;;;;;8.14;100.00;98495.22;6144135;23;20030;-84
2024/01/02 11:17:17;;;;;;;1.25;0.88;;;;;;;8.15;100.00;98497.75;6144021;23;20779;-84
2024/01/02 11:19:56;;;;;;;2.35;1.20;;;;;;;8.13;100.00;98494.41;6119878;23;20027;-83
2024/01/02 11:22:36;;;;;;;3.08;1.20;;;;;;;8.14;100.00;98480.22;6094914;23;20029;-83
2024/01/02 11:25:04;;;;;;;2.25;0.80;;;;;;;8.19;100.00;98487.66;6120571;23;20076;-82
2024/01/02 11:27:31;;;;;;;5.40;1.00;;;;;;;8.21;100.00;98478.59;6070921;23;20449;-83
2024/01/02 11:30:02;;;;;;;2.90;1.75;;;;;;;8.20;100.00;98476.94;6043784;23;20026;-83
2024/01/02 11:33:08;;;;;;;3.80;1.52;;;;;;;8.18;100.00;98465.69;6036570;23;20075;-84
2024/01/02 11:35:44;;;;;;;1.63;0.93;;;;;;;8.22;100.00;98459.13;6080149;23;20022;-83
2024/01/02 11:38:14;;;;;;;3.10;1.38;;;;;;;8.22;100.00;98460.94;6066733;23;20053;-83
2024/01/02 11:40:53;;;;;;;4.18;1.70;;;;;;;8.21;100.00;98460.09;6114512;23;20026;-84
2024/01/02 11:43:37;;;;;;;2.85;1.30;;;;;;;8.23;100.00;98458.13;6144224;23;20044;-85
2024/01/02 11:46:06;;;;;;;5.30;1.65;;;;;;;8.23;100.00;98460.78;6094430;23;20155;-83